createdAt,value
2022-11-23T00:00:46.150Z,84.21
2022-11-23T00:03:38.514Z,84.15
2022-11-23T00:06:10.797Z,84.18
2022-11-23T00:08:43.084Z,84.14
2022-11-23T00:11:15.888Z,84.34
2022-11-23T00:13:48.543Z,84.18
2022-11-23T00:16:22.418Z,84.61
2022-11-23T00:18:57.008Z,84.44
2022-11-23T00:24:17.216Z,84.61
2022-11-23T00:26:49.075Z,84.85
2022-11-23T00:29:27.494Z,84.67
2022-11-23T00:31:59.574Z,85.09
2022-11-23T00:34:31.663Z,84.88
2022-11-23T00:37:03.561Z,84.75
2022-11-23T00:39:36.004Z,84.59
2022-11-23T00:42:07.983Z,84.66
2022-11-23T00:44:40.544Z,84.45
2022-11-23T00:47:12.658Z,84.50
2022-11-23T00:49:44.554Z,84.44
2022-11-23T00:52:16.461Z,84.31
2022-11-23T00:54:49.496Z,84.45
2022-11-23T00:57:24.487Z,84.64
2022-11-23T00:59:57.064Z,84.41
2022-11-23T01:02:38.515Z,84.60
2022-11-23T01:05:11.420Z,84.39
2022-11-23T01:07:43.348Z,84.42
2022-11-23T01:10:16.105Z,84.56
2022-11-23T01:12:48.655Z,84.09
2022-11-23T01:15:20.738Z,84.28
2022-11-23T01:17:52.786Z,84.15
2022-11-23T01:20:24.673Z,84.50
2022-11-23T01:22:56.791Z,84.41
2022-11-23T01:25:28.699Z,84.43
2022-11-23T01:28:03.932Z,84.56
2022-11-23T01:30:36.642Z,84.45
2022-11-23T01:33:22.821Z,84.37
2022-11-23T01:35:57.363Z,84.66
2022-11-23T01:38:29.668Z,84.50
2022-11-23T01:41:07.338Z,84.81
2022-11-23T01:43:39.326Z,84.85
2022-11-23T01:46:15.965Z,84.71
2022-11-23T01:48:53.493Z,84.75
2022-11-23T01:51:30.241Z,84.72
2022-11-23T01:54:06.764Z,84.66
2022-11-23T01:56:45.426Z,84.66
2022-11-23T01:59:20.965Z,84.63
2022-11-23T02:01:53.341Z,84.88
2022-11-23T02:04:29.177Z,84.73
2022-11-23T02:07:10.522Z,84.75
2022-11-23T02:09:44.228Z,84.75
2022-11-23T02:12:16.935Z,84.93
2022-11-23T02:14:49.180Z,84.95
2022-11-23T02:17:23.287Z,84.64
2022-11-23T02:20:04.401Z,84.73
2022-11-23T02:22:49.215Z,84.73
2022-11-23T02:25:31.805Z,84.46
2022-11-23T02:28:04.603Z,84.58
2022-11-23T02:30:37.918Z,84.49
2022-11-23T02:33:11.961Z,84.70
2022-11-23T02:35:52.281Z,84.98
2022-11-23T02:38:26.872Z,84.72
2022-11-23T02:41:01.813Z,84.43
2022-11-23T02:43:34.769Z,84.39
2022-11-23T02:46:07.894Z,84.48
2022-11-23T02:48:39.788Z,84.53
2022-11-23T02:51:11.651Z,84.27
2022-11-23T02:53:43.831Z,84.70
2022-11-23T02:56:21.190Z,84.47
2022-11-23T02:58:53.280Z,84.41
2022-11-23T03:01:25.219Z,84.52
2022-11-23T03:03:57.541Z,84.30
2022-11-23T03:06:31.976Z,84.50
2022-11-23T03:09:03.988Z,84.49
2022-11-23T03:11:36.177Z,84.37
2022-11-23T03:14:08.217Z,84.24
2022-11-23T03:17:07.835Z,84.65
2022-11-23T03:19:56.953Z,84.58
2022-11-23T03:22:29.841Z,84.84
2022-11-23T03:25:01.850Z,84.93
2022-11-23T03:27:45.881Z,84.77
2022-11-23T03:30:19.687Z,84.27
2022-11-23T03:32:53.131Z,84.64
2022-11-23T03:35:32.619Z,84.45
2022-11-23T03:38:33.996Z,84.06
2022-11-23T03:41:07.669Z,84.27
2022-11-23T03:43:53.332Z,84.39
2022-11-23T03:46:25.608Z,84.43
2022-11-23T03:49:01.020Z,84.01
2022-11-23T03:51:35.012Z,84.37
2022-11-23T03:54:07.369Z,84.20
2022-11-23T03:56:39.549Z,84.12
2022-11-23T03:59:14.150Z,84.03
2022-11-23T04:01:53.300Z,84.33
2022-11-23T04:04:33.048Z,84.22
2022-11-23T04:07:15.120Z,84.25
2022-11-23T04:09:52.442Z,84.28
2022-11-23T04:13:12.073Z,84.53
2022-11-23T04:15:44.173Z,84.64
2022-11-23T04:18:16.558Z,84.83
2022-11-23T04:20:48.468Z,84.33
2022-11-23T04:23:21.538Z,84.65
2022-11-23T04:25:54.175Z,84.66
2022-11-23T04:28:26.472Z,84.44
2022-11-23T04:30:58.922Z,84.77
2022-11-23T04:33:31.864Z,84.55
2022-11-23T04:36:04.572Z,84.49
2022-11-23T04:38:44.527Z,84.49
2022-11-23T04:41:19.482Z,84.54
2022-11-23T04:43:52.413Z,84.33
2022-11-23T04:46:24.675Z,84.51
2022-11-23T04:48:56.622Z,84.43
2022-11-23T04:51:37.010Z,84.43
2022-11-23T04:54:09.586Z,84.53
2022-11-23T04:56:47.296Z,84.35
2022-11-23T04:59:31.957Z,84.39
2022-11-23T05:02:04.280Z,84.17
2022-11-23T05:04:51.581Z,84.25
2022-11-23T05:07:23.898Z,84.40
2022-11-23T05:10:00.017Z,84.35
2022-11-23T05:12:31.902Z,84.19
2022-11-23T05:15:04.647Z,84.06
2022-11-23T05:17:40.058Z,84.14
2022-11-23T05:20:48.723Z,84.05
2022-11-23T05:23:21.044Z,84.26
2022-11-23T05:25:55.344Z,84.32
2022-11-23T05:28:42.537Z,84.21
2022-11-23T05:31:19.586Z,84.14
2022-11-23T05:33:52.040Z,84.03
2022-11-23T05:36:41.948Z,84.05
2022-11-23T05:39:18.887Z,84.44
2022-11-23T05:41:54.457Z,84.18
2022-11-23T05:44:46.856Z,83.97
2022-11-23T05:47:24.566Z,84.00
2022-11-23T05:49:56.775Z,84.18
2022-11-23T05:52:30.749Z,84.17
2022-11-23T05:55:02.863Z,84.27
2022-11-23T05:57:52.715Z,84.02
2022-11-23T06:00:24.913Z,83.94
2022-11-23T06:03:03.228Z,84.07
2022-11-23T06:05:35.740Z,83.87
2022-11-23T06:08:08.045Z,84.04
2022-11-23T06:10:40.045Z,83.91
2022-11-23T06:13:15.011Z,84.10
2022-11-23T06:15:46.923Z,83.95
2022-11-23T06:18:19.849Z,84.35
2022-11-23T06:20:53.726Z,84.12
2022-11-23T06:23:25.886Z,83.94
2022-11-23T06:26:12.280Z,84.21
2022-11-23T06:28:45.847Z,83.94
2022-11-23T06:31:25.848Z,84.11
2022-11-23T06:33:57.877Z,84.09
2022-11-23T06:36:30.773Z,83.84
2022-11-23T06:39:03.564Z,83.95
2022-11-23T06:41:35.572Z,83.86
2022-11-23T06:44:08.192Z,83.80
2022-11-23T06:46:45.512Z,84.01
2022-11-23T06:49:19.716Z,83.93
2022-11-23T06:51:55.761Z,83.89
2022-11-23T06:54:27.697Z,84.09
2022-11-23T06:57:00.210Z,84.02
2022-11-23T06:59:33.295Z,84.13
2022-11-23T07:02:06.382Z,84.01
2022-11-23T07:04:41.052Z,84.27
2022-11-23T07:07:18.027Z,83.91
2022-11-23T07:10:13.611Z,84.30
2022-11-23T07:13:17.273Z,84.15
2022-11-23T07:15:49.236Z,84.14
2022-11-23T07:18:21.767Z,84.42
2022-11-23T07:21:00.012Z,84.24
2022-11-23T07:23:32.999Z,84.36
2022-11-23T07:26:06.604Z,84.14
2022-11-23T07:31:41.991Z,84.11
2022-11-23T07:34:14.118Z,84.20
2022-11-23T07:36:49.340Z,84.13
2022-11-23T07:39:36.458Z,83.78
2022-11-23T07:42:32.279Z,83.75
2022-11-23T07:45:07.272Z,84.22
2022-11-23T07:47:41.487Z,84.24
2022-11-23T07:50:15.119Z,84.43
2022-11-23T07:52:47.004Z,84.36
2022-11-23T07:55:18.950Z,84.19
2022-11-23T07:57:55.328Z,84.25
2022-11-23T08:00:28.849Z,84.15
2022-11-23T08:03:26.557Z,84.03
2022-11-23T08:05:56.699Z,84.12
2022-11-23T08:08:28.739Z,83.93
2022-11-23T08:11:00.744Z,84.03
2022-11-23T08:13:34.751Z,84.12
2022-11-23T08:16:07.459Z,84.34
2022-11-23T08:18:39.623Z,84.07
2022-11-23T08:21:11.600Z,84.25
2022-11-23T08:23:43.686Z,84.13
2022-11-23T08:26:15.869Z,84.36
2022-11-23T08:28:47.910Z,84.18
2022-11-23T08:31:19.940Z,84.36
2022-11-23T08:33:52.412Z,84.29
2022-11-23T08:36:24.487Z,84.19
2022-11-23T08:38:56.562Z,84.38
2022-11-23T08:41:28.902Z,84.30
2022-11-23T08:44:00.945Z,84.28
2022-11-23T08:46:33.216Z,84.24
2022-11-23T08:49:05.590Z,84.28
2022-11-23T08:51:37.782Z,84.17
2022-11-23T08:54:09.960Z,84.09
2022-11-23T08:56:42.079Z,83.98
2022-11-23T08:59:14.061Z,84.19
2022-11-23T09:01:46.616Z,84.14
2022-11-23T09:04:20.798Z,83.97
2022-11-23T09:07:05.396Z,84.03
2022-11-23T09:09:39.878Z,83.81
2022-11-23T09:12:12.276Z,83.99
2022-11-23T09:14:44.533Z,83.98
2022-11-23T09:17:16.611Z,83.93
2022-11-23T09:19:50.305Z,83.95
2022-11-23T09:22:22.489Z,83.87
2022-11-23T09:24:55.102Z,84.17
2022-11-23T09:27:27.136Z,83.83
2022-11-23T09:29:59.281Z,83.87
2022-11-23T09:32:32.974Z,83.67
2022-11-23T09:35:05.339Z,83.56
2022-11-23T09:37:37.593Z,83.70
2022-11-23T09:40:16.312Z,83.39
2022-11-23T09:43:04.425Z,83.78
2022-11-23T09:45:44.709Z,83.58
2022-11-23T09:48:33.272Z,83.76
2022-11-23T09:51:12.888Z,83.72
2022-11-23T09:53:49.394Z,83.94
2022-11-23T09:56:25.120Z,83.79
2022-11-23T09:58:59.279Z,83.69
2022-11-23T10:01:32.160Z,83.70
2022-11-23T10:04:08.290Z,83.83
2022-11-23T10:06:43.910Z,83.59
2022-11-23T10:09:37.986Z,83.68
2022-11-23T10:12:31.918Z,83.77
2022-11-23T10:15:20.588Z,84.04
2022-11-23T10:18:04.642Z,83.98
2022-11-23T10:20:51.341Z,83.86
2022-11-23T10:23:48.346Z,83.62
2022-11-23T10:26:22.930Z,83.86
2022-11-23T10:28:57.258Z,84.15
2022-11-23T10:31:31.823Z,83.61
2022-11-23T10:34:12.978Z,83.63
2022-11-23T10:36:45.077Z,83.65
2022-11-23T10:39:27.118Z,83.72
2022-11-23T10:42:04.489Z,83.47
2022-11-23T10:44:39.165Z,83.28
2022-11-23T10:47:11.125Z,83.54
2022-11-23T10:50:02.046Z,83.63
2022-11-23T10:52:35.275Z,83.62
2022-11-23T10:55:12.058Z,83.59
2022-11-23T10:57:48.220Z,83.43
2022-11-23T11:00:30.612Z,83.49
2022-11-23T11:03:22.799Z,83.22
2022-11-23T11:06:13.633Z,83.30
2022-11-23T11:08:55.423Z,83.18
2022-11-23T11:11:29.538Z,83.31
2022-11-23T11:14:16.991Z,83.38
2022-11-23T11:16:51.967Z,83.59
2022-11-23T11:19:32.377Z,83.52
2022-11-23T11:22:25.657Z,83.59
2022-11-23T11:24:58.003Z,83.52
2022-11-23T11:27:32.481Z,83.63
2022-11-23T11:30:21.467Z,83.79
2022-11-23T11:33:04.863Z,83.38
2022-11-23T11:35:41.911Z,83.37
2022-11-23T11:38:21.629Z,83.26
2022-11-23T11:40:55.786Z,83.19
2022-11-23T11:43:39.491Z,83.14
2022-11-23T11:46:32.126Z,82.81
2022-11-23T11:49:12.342Z,83.13
2022-11-23T11:51:48.528Z,83.13
2022-11-23T11:54:26.947Z,82.85
2022-11-23T11:57:04.604Z,83.15
2022-11-23T11:59:43.021Z,83.12
2022-11-23T12:02:30.556Z,83.28
2022-11-23T12:05:15.321Z,82.90
2022-11-23T12:07:59.252Z,83.18
2022-11-23T12:10:39.664Z,83.07
2022-11-23T12:13:16.936Z,83.18
2022-11-23T12:15:54.389Z,83.25
2022-11-23T12:18:51.461Z,83.27
2022-11-23T12:21:40.588Z,83.13
2022-11-23T12:24:21.572Z,82.97
2022-11-23T12:27:05.605Z,83.01
2022-11-23T12:30:05.248Z,83.03
2022-11-23T12:32:52.239Z,83.42
2022-11-23T12:35:47.608Z,83.05
2022-11-23T12:38:32.184Z,83.32
2022-11-23T12:41:16.167Z,83.18
2022-11-23T12:44:02.556Z,83.12
2022-11-23T12:46:45.797Z,82.94
2022-11-23T12:49:36.111Z,82.67
2022-11-23T12:52:28.562Z,83.21
2022-11-23T12:55:19.352Z,83.18
2022-11-23T12:58:01.505Z,82.80
2022-11-23T13:00:40.491Z,82.86
2022-11-23T13:03:44.450Z,82.67
2022-11-23T13:07:20.270Z,82.73
2022-11-23T13:10:09.175Z,83.02
2022-11-23T13:13:16.080Z,83.22
2022-11-23T13:16:17.165Z,83.29
2022-11-23T13:19:11.933Z,83.52
2022-11-23T13:21:46.559Z,83.49
2022-11-23T13:24:30.996Z,83.59
2022-11-23T13:27:50.488Z,83.35
2022-11-23T13:30:59.315Z,83.39
2022-11-23T13:33:38.046Z,83.64
2022-11-23T13:36:18.432Z,83.69
2022-11-23T13:38:52.616Z,83.71
2022-11-23T13:41:55.573Z,83.65
2022-11-23T13:44:31.518Z,83.51
2022-11-23T13:47:19.688Z,83.65
2022-11-23T13:49:52.993Z,83.33
2022-11-23T13:52:36.862Z,83.53
2022-11-23T13:55:22.585Z,83.41
2022-11-23T13:58:29.650Z,83.52
2022-11-23T14:01:02.628Z,83.31
2022-11-23T14:04:20.217Z,83.34
2022-11-23T14:06:57.116Z,83.31
2022-11-23T14:09:34.948Z,83.59
2022-11-23T14:12:23.848Z,83.39
2022-11-23T14:15:03.170Z,83.36
2022-11-23T14:17:56.048Z,83.33
2022-11-23T14:20:50.770Z,83.20
2022-11-23T14:24:04.503Z,83.24
2022-11-23T14:26:51.077Z,83.11
2022-11-23T14:29:32.930Z,83.24
2022-11-23T14:32:24.293Z,83.15
2022-11-23T14:35:07.735Z,83.24
2022-11-23T14:37:55.023Z,83.30
2022-11-23T14:40:32.892Z,83.15
2022-11-23T14:43:14.305Z,83.25
2022-11-23T14:45:48.089Z,82.97
2022-11-23T14:48:32.237Z,83.03
2022-11-23T14:51:07.369Z,83.10
2022-11-23T14:53:47.345Z,82.87
2022-11-23T14:56:30.912Z,82.74
2022-11-23T14:59:07.111Z,82.80
2022-11-23T15:01:42.731Z,82.99
2022-11-23T15:04:26.307Z,82.92
2022-11-23T15:07:02.059Z,83.20
2022-11-23T15:09:50.373Z,83.15
2022-11-23T15:12:27.412Z,83.36
2022-11-23T15:14:59.931Z,83.31
2022-11-23T15:17:32.436Z,83.16
2022-11-23T15:20:06.537Z,83.26
2022-11-23T15:22:39.221Z,82.97
2022-11-23T15:25:19.335Z,83.42
2022-11-23T15:27:51.498Z,83.32
2022-11-23T15:30:29.999Z,83.16
2022-11-23T15:33:05.451Z,83.24
2022-11-23T15:35:40.030Z,83.36
2022-11-23T15:38:20.498Z,83.11
2022-11-23T15:41:05.470Z,82.77
2022-11-23T15:43:37.587Z,82.91
2022-11-23T15:46:14.525Z,82.97
2022-11-23T15:48:51.169Z,83.01
2022-11-23T15:51:30.326Z,83.01
2022-11-23T15:54:03.154Z,83.04
2022-11-23T15:56:37.261Z,82.92
2022-11-23T15:59:29.617Z,83.03
2022-11-23T16:02:03.296Z,82.85
2022-11-23T16:04:40.035Z,83.04
2022-11-23T16:07:21.377Z,82.94
2022-11-23T16:10:08.197Z,82.70
2022-11-23T16:12:50.090Z,82.58
2022-11-23T16:15:59.584Z,82.65
2022-11-23T16:18:33.046Z,82.60
2022-11-23T16:21:06.465Z,82.86
2022-11-23T16:23:46.607Z,82.58
2022-11-23T16:26:19.243Z,82.50
2022-11-23T16:28:56.548Z,82.47
2022-11-23T16:31:31.590Z,82.63
2022-11-23T16:34:03.666Z,82.48
2022-11-23T16:36:35.776Z,82.68
2022-11-23T16:39:07.850Z,82.70
2022-11-23T16:41:40.516Z,82.80
2022-11-23T16:44:12.757Z,82.75
2022-11-23T16:46:46.784Z,82.74
2022-11-23T16:49:21.815Z,82.92
2022-11-23T16:51:57.104Z,82.72
2022-11-23T16:54:29.490Z,82.66
2022-11-23T16:57:01.809Z,82.66
2022-11-23T16:59:35.382Z,82.72
2022-11-23T17:02:14.519Z,82.63
2022-11-23T17:04:47.230Z,82.82
2022-11-23T17:07:19.325Z,82.67
2022-11-23T17:09:51.707Z,82.70
2022-11-23T17:12:23.661Z,82.57
2022-11-23T17:14:55.779Z,82.51
2022-11-23T17:17:30.086Z,82.42
2022-11-23T17:20:04.604Z,82.52
2022-11-23T17:22:37.074Z,82.72
2022-11-23T17:25:14.925Z,82.79
2022-11-23T17:27:48.340Z,82.38
2022-11-23T17:30:22.729Z,82.60
2022-11-23T17:32:55.262Z,82.36
2022-11-23T17:35:35.268Z,82.61
2022-11-23T17:38:13.301Z,82.71
2022-11-23T17:40:46.544Z,82.43
2022-11-23T17:43:21.007Z,82.87
2022-11-23T17:45:55.730Z,82.42
2022-11-23T17:48:28.830Z,82.65
2022-11-23T17:51:01.133Z,83.25
2022-11-23T17:53:33.042Z,83.02
2022-11-23T17:56:05.384Z,83.33
2022-11-23T17:58:37.516Z,83.06
2022-11-23T18:01:12.940Z,83.31
2022-11-23T18:03:46.115Z,83.42
2022-11-23T18:06:21.215Z,83.55
2022-11-23T18:08:54.135Z,83.57
2022-11-23T18:11:28.599Z,83.53
2022-11-23T18:14:00.709Z,83.48
2022-11-23T18:16:35.780Z,83.36
2022-11-23T18:19:07.748Z,83.33
2022-11-23T18:21:39.940Z,83.19
2022-11-23T18:24:12.254Z,83.32
2022-11-23T18:26:44.597Z,83.35
2022-11-23T18:29:17.403Z,83.44
2022-11-23T18:31:49.867Z,83.48
2022-11-23T18:34:22.006Z,83.14
2022-11-23T18:36:54.275Z,83.34
2022-11-23T18:39:26.511Z,82.84
2022-11-23T18:42:04.120Z,82.83
2022-11-23T18:44:38.019Z,82.93
2022-11-23T18:47:10.286Z,83.08
2022-11-23T18:49:42.189Z,83.53
2022-11-23T18:52:14.353Z,83.11
2022-11-23T18:54:46.305Z,83.04
2022-11-23T18:57:19.178Z,83.07
2022-11-23T18:59:59.201Z,82.78
2022-11-23T19:02:31.611Z,83.05
2022-11-23T19:05:03.719Z,82.95
2022-11-23T19:07:35.773Z,82.80
2022-11-23T19:10:09.613Z,82.40
2022-11-23T19:12:41.823Z,82.75
2022-11-23T19:15:14.378Z,82.61
2022-11-23T19:17:47.871Z,82.66
2022-11-23T19:20:21.392Z,82.50
2022-11-23T19:22:55.178Z,82.28
2022-11-23T19:25:27.190Z,82.53
2022-11-23T19:28:01.394Z,82.38
2022-11-23T19:30:33.780Z,82.61
2022-11-23T19:33:05.903Z,82.46
2022-11-23T19:35:40.283Z,82.12
2022-11-23T19:38:12.512Z,82.38
2022-11-23T19:40:44.614Z,82.37
2022-11-23T19:43:16.906Z,82.30
2022-11-23T19:45:57.628Z,82.28
2022-11-23T19:48:32.373Z,82.25
2022-11-23T19:51:06.543Z,82.54
2022-11-23T19:53:40.326Z,82.39
2022-11-23T19:56:15.180Z,82.44
2022-11-23T19:58:47.630Z,82.92
2022-11-23T20:01:21.750Z,82.85
2022-11-23T20:03:55.588Z,83.14
2022-11-23T20:06:29.558Z,82.80
2022-11-23T20:09:03.278Z,82.83
2022-11-23T20:11:36.336Z,82.64
2022-11-23T20:14:10.304Z,82.86
2022-11-23T20:16:42.627Z,82.66
2022-11-23T20:19:16.186Z,82.64
2022-11-23T20:21:53.404Z,82.55
2022-11-23T20:24:28.329Z,82.78
2022-11-23T20:27:00.443Z,82.84
2022-11-23T20:29:32.774Z,82.71
2022-11-23T20:32:05.520Z,82.94
2022-11-23T20:34:37.828Z,82.56
2022-11-23T20:37:09.937Z,82.32
2022-11-23T20:39:41.947Z,82.40
2022-11-23T20:42:13.833Z,82.17
2022-11-23T20:44:46.020Z,82.39
2022-11-23T20:47:18.040Z,82.76
2022-11-23T20:49:52.461Z,82.68
2022-11-23T20:52:24.599Z,82.84
2022-11-23T20:54:57.053Z,82.64
2022-11-23T20:57:29.031Z,83.27
2022-11-23T21:00:03.059Z,83.15
2022-11-23T21:02:35.000Z,82.97
2022-11-23T21:05:08.117Z,82.69
2022-11-23T21:07:41.456Z,83.26
2022-11-23T21:10:34.321Z,82.88
2022-11-23T21:13:24.138Z,83.21
2022-11-23T21:15:56.130Z,83.21
2022-11-23T21:18:28.075Z,83.02
2022-11-23T21:21:00.688Z,82.81
2022-11-23T21:23:34.547Z,83.03
2022-11-23T21:26:08.007Z,82.71
2022-11-23T21:28:39.982Z,82.82
2022-11-23T21:31:15.260Z,83.08
2022-11-23T21:33:52.019Z,83.18
2022-11-23T21:36:26.550Z,83.06
2022-11-23T21:38:58.499Z,83.15
2022-11-23T21:41:30.431Z,83.19
2022-11-23T21:44:04.982Z,83.42
2022-11-23T21:46:38.323Z,83.32
2022-11-23T21:49:11.654Z,83.12
2022-11-23T21:51:47.655Z,83.02
2022-11-23T21:54:19.947Z,82.78
2022-11-23T21:56:54.054Z,82.87
2022-11-23T21:59:26.267Z,83.02
2022-11-23T22:02:00.360Z,82.74
2022-11-23T22:04:32.905Z,83.03
2022-11-23T22:07:05.212Z,83.07
2022-11-23T22:09:40.309Z,82.91
2022-11-23T22:12:12.227Z,83.02
2022-11-23T22:14:56.118Z,82.92
2022-11-23T22:17:28.668Z,83.42
2022-11-23T22:20:00.592Z,83.16
2022-11-23T22:22:33.014Z,83.06
2022-11-23T22:25:05.542Z,83.33
2022-11-23T22:27:40.187Z,83.40
2022-11-23T22:30:16.628Z,83.27
2022-11-23T22:32:48.888Z,83.11
2022-11-23T22:35:21.191Z,83.12
2022-11-23T22:37:53.388Z,83.11
2022-11-23T22:40:27.023Z,83.02
2022-11-23T22:43:01.198Z,83.12
2022-11-23T22:45:33.790Z,83.29
2022-11-23T22:48:06.395Z,82.86
2022-11-23T22:50:39.077Z,83.13
2022-11-23T22:53:11.391Z,82.88
2022-11-23T22:55:43.377Z,82.46
2022-11-23T22:58:15.601Z,82.67
2022-11-23T23:00:48.207Z,82.84
2022-11-23T23:03:20.260Z,82.88
2022-11-23T23:05:58.635Z,82.78
2022-11-23T23:08:31.564Z,82.98
2022-11-23T23:11:07.449Z,83.16
2022-11-23T23:13:39.569Z,82.66
2022-11-23T23:16:14.504Z,82.71
2022-11-23T23:18:48.219Z,82.80
2022-11-23T23:21:22.696Z,82.66
2022-11-23T23:23:56.937Z,82.94
2022-11-23T23:26:30.477Z,83.08
2022-11-23T23:29:03.390Z,82.93
2022-11-23T23:31:37.455Z,82.84
2022-11-23T23:34:09.840Z,82.92
2022-11-23T23:36:41.792Z,83.18
2022-11-23T23:39:14.256Z,82.97
2022-11-23T23:41:47.040Z,82.87
2022-11-23T23:44:19.991Z,82.82
2022-11-23T23:46:51.852Z,82.92
2022-11-23T23:49:31.468Z,82.81
2022-11-23T23:52:05.323Z,82.53
2022-11-23T23:54:37.510Z,82.42
2022-11-23T23:57:11.944Z,82.54
2022-11-23T23:59:44.205Z,82.74
